createdAt,value
2018-12-02T00:00:10.214Z,64.33
2018-12-02T00:01:10.096Z,65.06
2018-12-02T00:02:10.086Z,64.46
2018-12-02T00:03:10.077Z,64.46
2018-12-02T00:04:10.063Z,64.56
2018-12-02T00:05:10.052Z,64.76
2018-12-02T00:06:10.154Z,64.46
2018-12-02T00:07:11.030Z,64.56
2018-12-02T00:08:10.021Z,64.76
2018-12-02T00:09:10.009Z,64.36
2018-12-02T00:10:10.001Z,64.66
2018-12-02T00:11:10.011Z,64.56
2018-12-02T00:12:10.146Z,64.66
2018-12-02T00:13:09.970Z,64.86
2018-12-02T00:14:09.956Z,64.76
2018-12-02T00:15:09.947Z,64.96
2018-12-02T00:16:09.942Z,64.36
2018-12-02T00:17:09.925Z,64.26
2018-12-02T00:18:10.177Z,64.16
2018-12-02T00:19:09.902Z,63.93
2018-12-02T00:20:09.892Z,63.93
2018-12-02T00:21:09.884Z,64.23
2018-12-02T00:22:09.871Z,63.82
2018-12-02T00:23:09.860Z,64.03
2018-12-02T00:24:09.970Z,63.73
2018-12-02T00:25:09.838Z,63.70
2018-12-02T00:26:09.829Z,63.42
2018-12-02T00:27:09.819Z,63.82
2018-12-02T00:28:09.806Z,63.39
2018-12-02T00:29:09.796Z,63.53
2018-12-02T00:30:09.902Z,63.32
2018-12-02T00:31:09.778Z,63.39
2018-12-02T00:32:09.763Z,63.42
2018-12-02T00:33:10.364Z,63.42
2018-12-02T00:34:09.744Z,63.32
2018-12-02T00:35:09.732Z,63.39
2018-12-02T00:36:10.002Z,63.62
2018-12-02T00:37:09.712Z,63.62
2018-12-02T00:38:09.701Z,63.53
2018-12-02T00:39:09.690Z,63.82
2018-12-02T00:40:09.677Z,63.62
2018-12-02T00:41:09.669Z,63.73
2018-12-02T00:42:09.867Z,63.62
2018-12-02T00:43:09.646Z,63.42
2018-12-02T00:44:09.635Z,63.29
2018-12-02T00:45:09.625Z,63.42
2018-12-02T00:46:09.618Z,63.42
2018-12-02T00:47:09.603Z,63.49
2018-12-02T00:48:09.702Z,63.49
2018-12-02T00:49:09.583Z,63.39
2018-12-02T00:50:09.570Z,63.32
2018-12-02T00:51:09.561Z,63.49
2018-12-02T00:52:09.552Z,63.29
2018-12-02T00:53:09.541Z,63.49
2018-12-02T00:54:09.637Z,63.22
2018-12-02T00:55:09.518Z,63.39
2018-12-02T00:56:09.507Z,63.09
2018-12-02T00:57:09.498Z,63.19
2018-12-02T00:58:09.490Z,63.19
2018-12-02T00:59:09.472Z,62.99
2018-12-02T01:00:09.739Z,63.09
2018-12-02T01:01:09.453Z,62.99
2018-12-02T01:02:09.443Z,62.99
2018-12-02T01:03:09.433Z,62.99
2018-12-02T01:04:09.420Z,63.09
2018-12-02T01:05:09.414Z,62.99
2018-12-02T01:06:09.695Z,63.09
2018-12-02T01:07:09.390Z,62.89
2018-12-02T01:08:09.381Z,63.09
2018-12-02T01:09:09.370Z,62.79
2018-12-02T01:10:09.357Z,62.99
2018-12-02T01:11:09.348Z,62.99
2018-12-02T01:12:09.446Z,62.99
2018-12-02T01:13:09.326Z,62.99
2018-12-02T01:14:09.314Z,62.99
2018-12-02T01:15:09.306Z,63.09
2018-12-02T01:16:09.292Z,62.99
2018-12-02T01:17:09.281Z,62.99
2018-12-02T01:18:09.451Z,63.19
2018-12-02T01:19:09.261Z,62.89
2018-12-02T01:20:09.265Z,62.89
2018-12-02T01:21:09.240Z,62.99
2018-12-02T01:22:09.227Z,62.99
2018-12-02T01:23:09.218Z,62.89
2018-12-02T01:24:09.314Z,62.99
2018-12-02T01:25:09.196Z,63.09
2018-12-02T01:26:09.188Z,62.89
2018-12-02T01:27:09.180Z,62.89
2018-12-02T01:28:09.164Z,62.69
2018-12-02T01:29:09.154Z,63.09
2018-12-02T01:30:09.248Z,62.99
2018-12-02T01:31:09.131Z,63.09
2018-12-02T01:32:09.139Z,63.09
2018-12-02T01:33:09.112Z,62.99
2018-12-02T01:34:09.102Z,62.89
2018-12-02T01:35:09.088Z,63.09
2018-12-02T01:36:09.908Z,62.59
2018-12-02T01:37:09.067Z,62.99
2018-12-02T01:38:09.065Z,62.99
2018-12-02T01:39:09.047Z,62.99
2018-12-02T01:40:09.036Z,63.19
2018-12-02T01:41:09.024Z,62.99
2018-12-02T01:42:09.123Z,62.99
2018-12-02T01:43:09.004Z,63.09
2018-12-02T01:44:09.017Z,63.19
2018-12-02T01:45:08.983Z,62.99
2018-12-02T01:46:08.980Z,62.99
2018-12-02T01:47:08.960Z,62.69
2018-12-02T01:48:09.061Z,62.99
2018-12-02T01:49:08.938Z,62.89
2018-12-02T01:50:08.933Z,62.89
2018-12-02T01:51:08.918Z,62.89
2018-12-02T01:52:08.907Z,62.89
2018-12-02T01:53:08.895Z,62.89
2018-12-02T01:54:09.069Z,62.99
2018-12-02T01:55:08.873Z,62.89
2018-12-02T01:56:08.865Z,63.19
2018-12-02T01:57:08.853Z,63.09
2018-12-02T01:58:08.849Z,62.89
2018-12-02T01:59:08.842Z,63.09
2018-12-02T02:00:09.044Z,63.09
2018-12-02T02:01:08.823Z,62.99
2018-12-02T02:02:08.799Z,62.99
2018-12-02T02:03:08.788Z,63.09
2018-12-02T02:04:08.776Z,62.99
2018-12-02T02:05:08.766Z,62.99
2018-12-02T02:06:08.861Z,62.79
2018-12-02T02:07:08.745Z,62.79
2018-12-02T02:08:08.742Z,62.89
2018-12-02T02:09:08.719Z,62.79
2018-12-02T02:10:08.712Z,62.79
2018-12-02T02:11:08.711Z,62.99
2018-12-02T02:12:08.849Z,62.99
2018-12-02T02:13:08.676Z,62.99
2018-12-02T02:14:08.670Z,62.89
2018-12-02T02:15:08.659Z,62.79
2018-12-02T02:16:08.648Z,62.89
2018-12-02T02:17:08.636Z,62.99
2018-12-02T02:18:08.792Z,62.89
2018-12-02T02:19:08.615Z,62.99
2018-12-02T02:20:08.606Z,62.99
2018-12-02T02:21:08.597Z,62.99
2018-12-02T02:22:08.583Z,62.89
2018-12-02T02:23:08.574Z,62.99
2018-12-02T02:24:08.657Z,62.69
2018-12-02T02:25:08.570Z,62.69
2018-12-02T02:26:08.543Z,62.59
2018-12-02T02:27:08.533Z,62.59
2018-12-02T02:28:08.520Z,62.49
2018-12-02T02:29:08.508Z,62.59
2018-12-02T02:30:08.816Z,62.39
2018-12-02T02:31:08.486Z,62.39
2018-12-02T02:32:08.477Z,62.49
2018-12-02T02:33:08.466Z,62.59
2018-12-02T02:34:08.453Z,62.39
2018-12-02T02:35:08.445Z,62.08
2018-12-02T02:36:08.530Z,62.08
2018-12-02T02:37:08.425Z,62.08
2018-12-02T02:38:08.416Z,61.96
2018-12-02T02:39:08.401Z,62.06
2018-12-02T02:40:08.388Z,61.76
2018-12-02T02:41:08.381Z,61.96
2018-12-02T02:42:08.521Z,62.19
2018-12-02T02:43:08.358Z,61.96
2018-12-02T02:44:08.348Z,61.76
2018-12-02T02:45:08.336Z,61.86
2018-12-02T02:46:08.327Z,61.96
2018-12-02T02:47:08.318Z,61.76
2018-12-02T02:48:08.431Z,61.86
2018-12-02T02:49:08.294Z,61.86
2018-12-02T02:50:08.284Z,62.26
2018-12-02T02:51:08.279Z,62.16
2018-12-02T02:52:08.262Z,61.86
2018-12-02T02:53:08.254Z,61.96
2018-12-02T02:54:08.503Z,62.29
2018-12-02T02:55:08.230Z,62.39
2018-12-02T02:56:08.220Z,62.08
2018-12-02T02:57:08.210Z,62.29
2018-12-02T02:58:08.202Z,62.39
2018-12-02T02:59:08.188Z,62.49
2018-12-02T03:00:08.276Z,62.59
2018-12-02T03:01:08.167Z,62.62
2018-12-02T03:02:08.156Z,62.62
2018-12-02T03:03:08.147Z,62.69
2018-12-02T03:04:08.134Z,62.92
2018-12-02T03:05:08.123Z,63.02
2018-12-02T03:06:08.423Z,63.02
2018-12-02T03:07:08.105Z,62.92
2018-12-02T03:08:08.092Z,62.82
2018-12-02T03:09:08.080Z,62.92
2018-12-02T03:10:08.071Z,62.82
2018-12-02T03:11:08.058Z,63.12
2018-12-02T03:12:08.214Z,63.02
2018-12-02T03:13:08.038Z,62.92
2018-12-02T03:14:08.026Z,62.72
2018-12-02T03:15:08.016Z,62.85
2018-12-02T03:16:08.007Z,62.92
2018-12-02T03:17:07.994Z,62.92
2018-12-02T03:18:08.097Z,62.85
2018-12-02T03:19:07.973Z,62.95
2018-12-02T03:20:07.966Z,62.95
2018-12-02T03:21:07.954Z,62.95
2018-12-02T03:22:07.941Z,63.05
2018-12-02T03:23:07.929Z,62.85
2018-12-02T03:24:08.039Z,62.85
2018-12-02T03:25:07.909Z,62.85
2018-12-02T03:26:07.897Z,63.05
2018-12-02T03:27:07.889Z,63.05
2018-12-02T03:28:07.876Z,63.05
2018-12-02T03:29:07.869Z,62.95
2018-12-02T03:30:08.054Z,62.95
2018-12-02T03:31:07.853Z,62.75
2018-12-02T03:32:07.833Z,62.85
2018-12-02T03:33:07.823Z,62.95
2018-12-02T03:34:07.811Z,63.05
2018-12-02T03:35:07.800Z,62.95
2018-12-02T03:36:07.923Z,62.95
2018-12-02T03:37:07.780Z,62.95
2018-12-02T03:38:07.768Z,62.95
2018-12-02T03:39:07.757Z,62.98
2018-12-02T03:40:07.745Z,62.85
2018-12-02T03:41:07.734Z,62.95
2018-12-02T03:42:07.855Z,62.95
2018-12-02T03:43:07.713Z,62.98
2018-12-02T03:44:07.714Z,62.85
2018-12-02T03:45:07.690Z,62.95
2018-12-02T03:46:07.686Z,62.75
2018-12-02T03:47:07.667Z,62.65
2018-12-02T03:48:07.819Z,62.75
2018-12-02T03:49:07.657Z,62.65
2018-12-02T03:50:07.640Z,62.75
2018-12-02T03:51:07.627Z,62.55
2018-12-02T03:52:07.613Z,62.68
2018-12-02T03:53:07.618Z,62.45
2018-12-02T03:54:07.722Z,62.65
2018-12-02T03:55:07.585Z,62.55
2018-12-02T03:56:07.574Z,62.55
2018-12-02T03:57:07.564Z,62.75
2018-12-02T03:58:07.575Z,62.48
2018-12-02T03:59:07.538Z,62.58
2018-12-02T04:00:07.707Z,62.45
2018-12-02T04:01:07.522Z,62.45
2018-12-02T04:02:07.509Z,62.45
2018-12-02T04:03:07.513Z,62.78
2018-12-02T04:04:07.573Z,62.68
2018-12-02T04:05:07.476Z,62.48
2018-12-02T04:06:07.754Z,62.35
2018-12-02T04:07:07.456Z,62.58
2018-12-02T04:08:07.444Z,62.68
2018-12-02T04:09:07.430Z,62.68
2018-12-02T04:10:07.420Z,62.98
2018-12-02T04:11:07.411Z,62.88
2018-12-02T04:12:07.554Z,62.88
2018-12-02T04:13:07.408Z,62.78
2018-12-02T04:14:07.378Z,62.68
2018-12-02T04:15:07.366Z,62.78
2018-12-02T04:16:07.356Z,62.78
2018-12-02T04:17:07.375Z,62.58
2018-12-02T04:18:07.439Z,62.78
2018-12-02T04:19:07.327Z,62.48
2018-12-02T04:20:07.315Z,62.38
2018-12-02T04:21:07.304Z,62.58
2018-12-02T04:22:07.294Z,62.27
2018-12-02T04:23:07.286Z,62.58
2018-12-02T04:24:07.435Z,62.48
2018-12-02T04:25:07.258Z,62.38
2018-12-02T04:26:07.248Z,62.38
2018-12-02T04:27:07.237Z,62.68
2018-12-02T04:28:07.227Z,62.68
2018-12-02T04:29:07.215Z,62.58
2018-12-02T04:30:07.307Z,62.48
2018-12-02T04:31:07.196Z,62.38
2018-12-02T04:32:07.186Z,62.48
2018-12-02T04:33:07.176Z,62.38
2018-12-02T04:34:07.165Z,62.38
2018-12-02T04:35:07.151Z,62.27
2018-12-02T04:36:07.236Z,62.38
2018-12-02T04:37:07.129Z,62.58
2018-12-02T04:38:07.118Z,62.38
2018-12-02T04:39:07.126Z,62.38
2018-12-02T04:40:07.098Z,62.38
2018-12-02T04:41:07.195Z,62.38
2018-12-02T04:42:07.253Z,62.38
2018-12-02T04:43:07.066Z,62.07
2018-12-02T04:44:07.053Z,62.27
2018-12-02T04:45:07.046Z,62.27
2018-12-02T04:46:07.033Z,62.27
2018-12-02T04:47:07.024Z,62.38
2018-12-02T04:48:07.168Z,62.18
2018-12-02T04:49:07.001Z,62.27
2018-12-02T04:50:06.994Z,62.38
2018-12-02T04:51:06.987Z,62.38
2018-12-02T04:52:06.972Z,62.27
2018-12-02T04:53:06.960Z,62.27
2018-12-02T04:54:07.057Z,62.27
2018-12-02T04:55:06.940Z,62.27
2018-12-02T04:56:06.927Z,62.27
2018-12-02T04:57:06.924Z,62.07
2018-12-02T04:58:06.907Z,62.27
2018-12-02T04:59:06.893Z,62.27
2018-12-02T05:00:07.330Z,62.18
2018-12-02T05:01:06.879Z,62.48
2018-12-02T05:02:06.866Z,62.18
2018-12-02T05:03:06.853Z,62.24
2018-12-02T05:04:06.864Z,62.07
2018-12-02T05:05:06.845Z,61.98
2018-12-02T05:06:06.985Z,62.18
2018-12-02T05:07:06.824Z,62.07
2018-12-02T05:08:06.808Z,62.15
2018-12-02T05:09:06.796Z,62.18
2018-12-02T05:10:06.790Z,61.94
2018-12-02T05:11:06.771Z,62.15
2018-12-02T05:12:06.879Z,62.24
2018-12-02T05:13:06.749Z,62.24
2018-12-02T05:14:06.744Z,62.05
2018-12-02T05:15:06.763Z,62.18
2018-12-02T05:16:06.721Z,61.85
2018-12-02T05:17:06.706Z,61.67
2018-12-02T05:18:06.834Z,61.65
2018-12-02T05:19:06.690Z,61.65
2018-12-02T05:20:06.680Z,61.94
2018-12-02T05:21:06.671Z,62.05
2018-12-02T05:22:06.658Z,61.85
2018-12-02T05:23:06.688Z,61.65
2018-12-02T05:24:06.821Z,62.05
2018-12-02T05:25:06.631Z,61.94
2018-12-02T05:26:06.614Z,62.15
2018-12-02T05:27:06.614Z,62.05
2018-12-02T05:28:06.593Z,61.85
2018-12-02T05:29:06.580Z,61.94
2018-12-02T05:30:06.768Z,61.85
2018-12-02T05:31:06.696Z,62.05
2018-12-02T05:32:06.749Z,61.85
2018-12-02T05:33:06.840Z,61.74
2018-12-02T05:34:06.525Z,61.54
2018-12-02T05:35:07.267Z,61.74
2018-12-02T05:36:06.857Z,61.85
2018-12-02T05:37:06.818Z,62.02
2018-12-02T05:38:08.267Z,61.54
2018-12-02T05:39:07.604Z,61.71
2018-12-02T05:40:06.472Z,61.94
2018-12-02T05:41:06.461Z,61.71
2018-12-02T05:42:06.610Z,61.71
2018-12-02T05:43:06.643Z,61.91
2018-12-02T05:44:06.475Z,61.71
2018-12-02T05:45:06.476Z,61.71
2018-12-02T05:46:06.388Z,61.41
2018-12-02T05:47:06.432Z,61.31
2018-12-02T05:48:06.702Z,61.41
2018-12-02T05:49:06.407Z,61.51
2018-12-02T05:50:06.354Z,61.51
2018-12-02T05:51:06.356Z,61.41
2018-12-02T05:52:06.341Z,61.91
2018-12-02T05:53:06.343Z,61.71
2018-12-02T05:54:06.408Z,61.79
2018-12-02T05:55:06.304Z,61.71
2018-12-02T05:56:06.290Z,61.71
2018-12-02T05:57:06.280Z,61.61
2018-12-02T05:58:06.273Z,61.61
2018-12-02T05:59:06.267Z,61.88
2018-12-02T06:00:06.496Z,61.82
2018-12-02T06:01:06.238Z,61.58
2018-12-02T06:02:06.256Z,61.61
2018-12-02T06:03:06.218Z,61.61
2018-12-02T06:04:06.207Z,61.61
2018-12-02T06:05:06.192Z,61.69
2018-12-02T06:06:06.297Z,61.58
2018-12-02T06:07:06.170Z,61.58
2018-12-02T06:08:06.163Z,61.69
2018-12-02T06:09:06.148Z,61.79
2018-12-02T06:10:06.137Z,61.58
2018-12-02T06:11:06.127Z,61.49
2018-12-02T06:12:06.219Z,61.49
2018-12-02T06:13:06.107Z,61.49
2018-12-02T06:14:06.092Z,61.38
2018-12-02T06:15:06.082Z,61.46
2018-12-02T06:16:06.076Z,61.46
2018-12-02T06:17:06.065Z,61.35
2018-12-02T06:18:06.257Z,61.05
2018-12-02T06:19:06.043Z,61.05
2018-12-02T06:20:06.031Z,60.96
2018-12-02T06:21:06.028Z,60.85
2018-12-02T06:22:06.009Z,61.02
2018-12-02T06:23:05.997Z,61.02
2018-12-02T06:24:06.125Z,60.62
2018-12-02T06:25:06.009Z,60.52
2018-12-02T06:26:06.024Z,60.82
2018-12-02T06:27:05.972Z,60.82
2018-12-02T06:28:05.944Z,60.80
2018-12-02T06:29:05.939Z,60.82
2018-12-02T06:30:06.228Z,60.69
2018-12-02T06:31:05.922Z,60.80
2018-12-02T06:32:05.913Z,60.60
2018-12-02T06:33:05.891Z,60.69
2018-12-02T06:34:05.892Z,60.10
2018-12-02T06:35:05.874Z,60.69
2018-12-02T06:36:06.047Z,60.69
2018-12-02T06:37:05.853Z,60.19
2018-12-02T06:38:05.858Z,60.36
2018-12-02T06:39:05.826Z,60.27
2018-12-02T06:40:05.825Z,60.16
2018-12-02T06:41:05.817Z,59.86
2018-12-02T06:42:05.918Z,60.33
2018-12-02T06:43:05.785Z,59.94
2018-12-02T06:44:05.787Z,59.83
2018-12-02T06:45:05.758Z,59.83
2018-12-02T06:46:05.757Z,59.94
2018-12-02T06:47:05.746Z,60.03
2018-12-02T06:48:05.862Z,60.53
2018-12-02T06:49:05.729Z,59.94
2018-12-02T06:50:05.720Z,59.91
2018-12-02T06:51:05.700Z,59.50
2018-12-02T06:52:05.692Z,59.41
2018-12-02T06:53:05.684Z,59.61
2018-12-02T06:54:06.048Z,59.81
2018-12-02T06:55:05.665Z,59.20
2018-12-02T06:56:05.656Z,59.81
2018-12-02T06:57:05.636Z,59.81
2018-12-02T06:58:05.626Z,59.81
2018-12-02T06:59:05.626Z,59.50
2018-12-02T07:00:05.736Z,59.88
2018-12-02T07:01:05.606Z,59.18
2018-12-02T07:02:05.601Z,59.58
2018-12-02T07:03:05.600Z,59.28
2018-12-02T07:04:05.563Z,59.38
2018-12-02T07:05:05.576Z,59.68
2018-12-02T07:06:05.696Z,59.58
2018-12-02T07:07:05.526Z,59.15
2018-12-02T07:08:05.517Z,59.35
2018-12-02T07:09:05.504Z,59.15
2018-12-02T07:10:05.498Z,58.85
2018-12-02T07:11:05.499Z,58.82
2018-12-02T07:12:05.739Z,58.22
2018-12-02T07:13:05.463Z,58.22
2018-12-02T07:14:05.477Z,58.49
2018-12-02T07:15:05.441Z,58.42
2018-12-02T07:16:05.448Z,58.39
2018-12-02T07:17:05.424Z,58.29
2018-12-02T07:18:05.565Z,58.39
2018-12-02T07:19:05.396Z,59.02
2018-12-02T07:20:05.387Z,58.19
2018-12-02T07:21:05.839Z,58.29
2018-12-02T07:22:05.377Z,58.09
2018-12-02T07:23:05.356Z,58.59
2018-12-02T07:24:05.453Z,58.59
2018-12-02T07:25:05.341Z,58.69
2018-12-02T07:26:05.331Z,58.89
2018-12-02T07:27:05.319Z,58.80
2018-12-02T07:28:05.331Z,58.89
2018-12-02T07:29:05.292Z,58.99
2018-12-02T07:30:05.488Z,58.59
2018-12-02T07:31:05.277Z,58.56
2018-12-02T07:32:05.259Z,58.37
2018-12-02T07:33:06.276Z,58.37
2018-12-02T07:34:05.272Z,58.94
2018-12-02T07:35:05.235Z,58.84
2018-12-02T07:36:05.489Z,57.84
2018-12-02T07:37:05.203Z,57.81
2018-12-02T07:38:05.198Z,59.14
2018-12-02T07:39:05.200Z,58.54
2018-12-02T07:40:05.171Z,58.54
2018-12-02T07:41:05.162Z,58.24
2018-12-02T07:42:05.282Z,58.24
2018-12-02T07:43:05.143Z,58.81
2018-12-02T07:44:05.127Z,57.91
2018-12-02T07:45:05.122Z,57.91
2018-12-02T07:46:05.110Z,58.01
2018-12-02T07:47:05.097Z,58.01
2018-12-02T07:48:05.889Z,57.78
2018-12-02T07:49:05.074Z,58.01
2018-12-02T07:50:05.063Z,58.38
2018-12-02T07:51:05.056Z,58.48
2018-12-02T07:52:05.037Z,58.31
2018-12-02T07:53:05.040Z,58.31
2018-12-02T07:54:05.230Z,58.28
2018-12-02T07:55:05.010Z,58.08
2018-12-02T07:56:04.999Z,57.78
2018-12-02T07:57:04.991Z,58.06
2018-12-02T07:58:04.992Z,57.46
2018-12-02T07:59:04.965Z,57.15
2018-12-02T08:00:05.125Z,56.93
2018-12-02T08:01:04.947Z,56.63
2018-12-02T08:02:04.936Z,56.40
2018-12-02T08:03:04.921Z,56.51
2018-12-02T08:04:04.912Z,56.40
2018-12-02T08:05:04.900Z,56.40
2018-12-02T08:06:04.986Z,56.51
2018-12-02T08:07:04.875Z,56.40
2018-12-02T08:08:04.871Z,56.38
2018-12-02T08:09:04.855Z,56.98
2018-12-02T08:10:04.842Z,56.90
2018-12-02T08:11:04.834Z,56.81
2018-12-02T08:12:04.940Z,56.57
2018-12-02T08:13:04.813Z,56.57
2018-12-02T08:14:04.819Z,56.35
2018-12-02T08:15:04.790Z,56.35
2018-12-02T08:16:04.778Z,56.77
2018-12-02T08:17:04.767Z,56.65
2018-12-02T08:18:04.916Z,56.45
2018-12-02T08:19:04.751Z,57.07
2018-12-02T08:20:04.753Z,56.98
2018-12-02T08:21:04.725Z,56.68
2018-12-02T08:22:04.711Z,56.77
2018-12-02T08:23:04.701Z,56.77
2018-12-02T08:24:04.821Z,56.77
2018-12-02T08:25:04.678Z,56.95
2018-12-02T08:26:04.668Z,56.85
2018-12-02T08:27:04.656Z,56.55
2018-12-02T08:28:04.647Z,56.32
2018-12-02T08:29:04.636Z,56.12
2018-12-02T08:30:04.738Z,56.30
2018-12-02T08:31:04.613Z,56.52
2018-12-02T08:32:04.603Z,56.32
2018-12-02T08:33:04.591Z,56.55
2018-12-02T08:34:04.580Z,56.25
2018-12-02T08:35:04.570Z,56.75
2018-12-02T08:36:04.737Z,56.85
2018-12-02T08:37:04.554Z,56.77
2018-12-02T08:38:04.540Z,56.35
2018-12-02T08:39:04.526Z,56.42
2018-12-02T08:40:04.523Z,56.10
2018-12-02T08:41:04.504Z,55.90
2018-12-02T08:42:04.603Z,55.82
2018-12-02T08:43:04.483Z,55.63
2018-12-02T08:44:04.477Z,56.12
2018-12-02T08:45:04.463Z,56.32
2018-12-02T08:46:04.451Z,56.12
2018-12-02T08:47:04.451Z,56.72
2018-12-02T08:48:04.540Z,56.75
2018-12-02T08:49:04.419Z,56.82
2018-12-02T08:50:04.407Z,56.23
2018-12-02T08:51:04.397Z,56.35
2018-12-02T08:52:04.394Z,56.42
2018-12-02T08:53:04.377Z,56.23
2018-12-02T08:54:04.573Z,56.32
2018-12-02T08:55:04.355Z,56.42
2018-12-02T08:56:04.343Z,55.82
2018-12-02T08:57:04.333Z,56.00
2018-12-02T08:58:04.321Z,55.80
2018-12-02T08:59:04.311Z,55.80
2018-12-02T09:00:04.409Z,55.00
2018-12-02T09:01:04.289Z,55.20
2018-12-02T09:02:04.279Z,55.90
2018-12-02T09:03:04.267Z,55.90
2018-12-02T09:04:04.256Z,55.70
2018-12-02T09:05:04.247Z,55.90
2018-12-02T09:06:04.334Z,56.10
2018-12-02T09:07:04.871Z,56.10
2018-12-02T09:08:04.214Z,56.12
2018-12-02T09:09:04.203Z,55.90
2018-12-02T09:10:04.196Z,56.23
2018-12-02T09:11:04.182Z,56.12
2018-12-02T09:12:04.330Z,55.93
2018-12-02T09:13:04.160Z,55.93
2018-12-02T09:14:04.149Z,55.80
2018-12-02T09:15:04.137Z,56.20
2018-12-02T09:16:04.126Z,56.10
2018-12-02T09:17:04.122Z,55.90
2018-12-02T09:18:04.427Z,55.90
2018-12-02T09:19:04.096Z,56.00
2018-12-02T09:20:04.085Z,55.90
2018-12-02T09:21:04.073Z,55.90
2018-12-02T09:22:04.062Z,55.90
2018-12-02T09:23:04.052Z,56.30
2018-12-02T09:24:04.140Z,56.00
2018-12-02T09:25:04.030Z,55.67
2018-12-02T09:26:04.019Z,55.57
2018-12-02T09:27:04.006Z,54.75
2018-12-02T09:28:03.997Z,54.85
2018-12-02T09:29:03.990Z,55.74
2018-12-02T09:30:04.196Z,55.42
2018-12-02T09:31:03.963Z,54.95
2018-12-02T09:32:05.150Z,54.85
2018-12-02T09:33:03.943Z,54.82
2018-12-02T09:34:03.934Z,54.95
2018-12-02T09:35:03.921Z,55.55
2018-12-02T09:36:04.082Z,55.74
2018-12-02T09:37:03.899Z,55.85
2018-12-02T09:38:03.893Z,55.77
2018-12-02T09:39:03.879Z,55.87
2018-12-02T09:40:03.868Z,55.77
2018-12-02T09:41:03.855Z,54.95
2018-12-02T09:42:03.946Z,55.25
2018-12-02T09:43:03.835Z,55.12
2018-12-02T09:44:03.824Z,54.82
2018-12-02T09:45:03.814Z,55.10
2018-12-02T09:46:03.805Z,54.57
2018-12-02T09:47:03.791Z,53.48
2018-12-02T09:48:03.966Z,53.66
2018-12-02T09:49:03.771Z,53.06
2018-12-02T09:50:03.760Z,54.15
2018-12-02T09:51:03.749Z,53.75
2018-12-02T09:52:03.738Z,53.66
2018-12-02T09:53:03.728Z,53.56
2018-12-02T09:54:03.917Z,53.66
2018-12-02T09:55:04.372Z,52.71
2018-12-02T09:56:03.696Z,52.81
2018-12-02T09:57:03.684Z,52.29
2018-12-02T09:58:03.677Z,52.36
2018-12-02T09:59:03.668Z,52.04
2018-12-02T10:00:03.757Z,52.07
2018-12-02T10:01:03.642Z,52.88
2018-12-02T10:02:03.631Z,53.28
2018-12-02T10:03:03.620Z,53.60
2018-12-02T10:04:03.611Z,53.80
2018-12-02T10:05:03.599Z,54.22
2018-12-02T10:06:03.684Z,54.22
2018-12-02T10:07:03.582Z,53.83
2018-12-02T10:08:03.571Z,53.66
2018-12-02T10:09:03.555Z,54.25
2018-12-02T10:10:03.546Z,54.85
2018-12-02T10:11:03.537Z,54.94
2018-12-02T10:12:03.795Z,53.66
2018-12-02T10:13:03.518Z,54.55
2018-12-02T10:14:03.503Z,54.45
2018-12-02T10:15:03.499Z,54.13
2018-12-02T10:16:03.482Z,54.42
2018-12-02T10:17:03.469Z,54.32
2018-12-02T10:18:03.569Z,54.22
2018-12-02T10:19:03.448Z,53.83
2018-12-02T10:20:03.438Z,53.83
2018-12-02T10:21:03.429Z,53.38
2018-12-02T10:22:03.425Z,52.36
2018-12-02T10:23:03.406Z,52.71
2018-12-02T10:24:03.507Z,51.82
2018-12-02T10:25:03.384Z,52.12
2018-12-02T10:26:03.373Z,52.73
2018-12-02T10:27:03.360Z,52.24
2018-12-02T10:28:03.353Z,52.54
2018-12-02T10:29:03.342Z,53.06
2018-12-02T10:30:03.500Z,52.46
2018-12-02T10:31:03.320Z,53.06
2018-12-02T10:32:03.309Z,53.65
2018-12-02T10:33:03.300Z,52.86
2018-12-02T10:34:03.287Z,53.25
2018-12-02T10:35:03.277Z,52.64
2018-12-02T10:36:03.362Z,52.51
2018-12-02T10:37:03.285Z,52.31
2018-12-02T10:38:03.244Z,52.29
2018-12-02T10:39:03.232Z,51.35
2018-12-02T10:40:03.223Z,51.15
2018-12-02T10:41:03.238Z,51.05
2018-12-02T10:42:03.369Z,50.66
2018-12-02T10:43:03.189Z,51.05
2018-12-02T10:44:03.179Z,51.37
2018-12-02T10:45:03.172Z,51.37
2018-12-02T10:46:03.160Z,51.67
2018-12-02T10:47:03.153Z,52.19
2018-12-02T10:48:03.237Z,51.89
2018-12-02T10:49:03.125Z,52.29
2018-12-02T10:50:03.114Z,51.99
2018-12-02T10:51:03.106Z,52.09
2018-12-02T10:52:03.099Z,52.01
2018-12-02T10:53:03.083Z,52.31
2018-12-02T10:54:03.273Z,52.44
2018-12-02T10:55:03.063Z,53.13
2018-12-02T10:56:03.053Z,53.06
2018-12-02T10:57:03.044Z,52.96
2018-12-02T10:58:03.032Z,52.96
2018-12-02T10:59:03.027Z,52.76
2018-12-02T11:00:03.323Z,52.86
2018-12-02T11:01:02.999Z,53.25
2018-12-02T11:02:02.989Z,52.66
2018-12-02T11:03:02.978Z,52.36
2018-12-02T11:04:02.967Z,52.86
2018-12-02T11:05:02.956Z,53.97
2018-12-02T11:06:03.044Z,53.88
2018-12-02T11:07:02.936Z,53.41
2018-12-02T11:08:02.925Z,53.67
2018-12-02T11:09:02.913Z,53.70
2018-12-02T11:10:02.904Z,53.70
2018-12-02T11:11:02.891Z,53.70
2018-12-02T11:12:02.982Z,52.91
2018-12-02T11:13:02.868Z,52.91
2018-12-02T11:14:02.860Z,53.53
2018-12-02T11:15:02.850Z,53.13
2018-12-02T11:16:02.839Z,53.53
2018-12-02T11:17:02.831Z,53.63
2018-12-02T11:18:03.085Z,53.43
2018-12-02T11:19:02.807Z,52.91
2018-12-02T11:20:02.801Z,53.11
2018-12-02T11:21:02.786Z,53.01
2018-12-02T11:22:02.774Z,52.19
2018-12-02T11:23:02.765Z,52.34
2018-12-02T11:24:02.867Z,51.42
2018-12-02T11:25:02.743Z,50.71
2018-12-02T11:26:02.734Z,50.38
2018-12-02T11:27:02.725Z,49.27
2018-12-02T11:28:02.707Z,49.82
2018-12-02T11:29:02.698Z,49.50
2018-12-02T11:30:02.789Z,49.18
2018-12-02T11:31:02.674Z,49.18
2018-12-02T11:32:02.671Z,49.57
2018-12-02T11:33:02.657Z,49.45
2018-12-02T11:34:02.650Z,49.35
2018-12-02T11:35:02.641Z,49.75
2018-12-02T11:36:02.807Z,49.52
2018-12-02T11:37:02.617Z,49.43
2018-12-02T11:38:02.613Z,48.89
2018-12-02T11:39:02.593Z,49.06
2018-12-02T11:40:02.585Z,48.57
2018-12-02T11:41:02.573Z,48.57
2018-12-02T11:42:02.670Z,48.74
2018-12-02T11:43:02.548Z,48.65
2018-12-02T11:44:02.538Z,49.53
2018-12-02T11:45:02.534Z,49.23
2018-12-02T11:46:02.519Z,49.35
2018-12-02T11:47:02.509Z,49.48
2018-12-02T11:48:02.653Z,49.48
2018-12-02T11:49:02.488Z,49.87
2018-12-02T11:50:02.491Z,50.19
2018-12-02T11:51:02.463Z,50.71
2018-12-02T11:52:02.485Z,51.03
2018-12-02T11:53:02.451Z,51.54
2018-12-02T11:54:02.752Z,52.16
2018-12-02T11:55:02.426Z,52.28
2018-12-02T11:56:02.422Z,52.28
2018-12-02T11:57:02.405Z,52.36
2018-12-02T11:58:02.393Z,51.87
2018-12-02T11:59:02.379Z,52.09
2018-12-02T12:00:02.524Z,52.31
2018-12-02T12:01:02.361Z,52.73
2018-12-02T12:02:07.534Z,52.73
2018-12-02T12:03:03.339Z,52.17
2018-12-02T12:04:02.338Z,53.05
2018-12-02T12:05:02.343Z,53.35
2018-12-02T12:06:02.508Z,52.06
2018-12-02T12:07:02.298Z,52.83
2018-12-02T12:08:02.286Z,52.26
2018-12-02T12:09:02.304Z,53.05
2018-12-02T12:10:02.267Z,52.29
2018-12-02T12:11:02.256Z,52.78
2018-12-02T12:12:02.456Z,52.09
2018-12-02T12:13:02.233Z,52.61
2018-12-02T12:14:02.222Z,52.51
2018-12-02T12:15:02.213Z,52.24
2018-12-02T12:16:02.201Z,52.93
2018-12-02T12:17:02.199Z,52.17
2018-12-02T12:18:02.314Z,52.36
2018-12-02T12:19:02.170Z,52.36
2018-12-02T12:20:02.161Z,52.96
2018-12-02T12:21:02.171Z,52.26
2018-12-02T12:22:02.137Z,52.46
2018-12-02T12:23:02.126Z,52.59
2018-12-02T12:24:02.217Z,52.78
2018-12-02T12:25:02.107Z,52.19
2018-12-02T12:26:02.098Z,52.29
2018-12-02T12:27:02.084Z,52.29
2018-12-02T12:28:02.086Z,52.49
2018-12-02T12:29:02.063Z,52.29
2018-12-02T12:30:02.216Z,52.09
2018-12-02T12:31:02.042Z,52.29
2018-12-02T12:32:02.896Z,51.89
2018-12-02T12:33:02.020Z,52.02
2018-12-02T12:34:02.010Z,51.82
2018-12-02T12:35:02.005Z,51.92
2018-12-02T12:36:02.085Z,51.92
2018-12-02T12:37:01.992Z,51.82
2018-12-02T12:38:01.965Z,51.82
2018-12-02T12:39:01.955Z,51.82
2018-12-02T12:40:01.950Z,51.82
2018-12-02T12:41:01.942Z,52.02
2018-12-02T12:42:02.033Z,51.23
2018-12-02T12:43:01.914Z,51.32
2018-12-02T12:44:01.903Z,51.32
2018-12-02T12:45:01.894Z,51.23
2018-12-02T12:46:01.882Z,51.03
2018-12-02T12:47:01.870Z,50.43
2018-12-02T12:48:02.025Z,50.11
2018-12-02T12:49:01.851Z,49.99
2018-12-02T12:50:01.839Z,49.89
2018-12-02T12:51:01.826Z,49.47
2018-12-02T12:52:01.832Z,50.04